createdAt,value
2022-11-10T00:00:12.601Z,24.40
2022-11-10T00:03:03.799Z,26.10
2022-11-10T00:05:51.365Z,24.42
2022-11-10T00:08:38.597Z,24.40
2022-11-10T00:11:26.702Z,25.23
2022-11-10T00:14:31.501Z,23.83
2022-11-10T00:17:18.350Z,25.45
2022-11-10T00:20:07.952Z,22.60
2022-11-10T00:22:56.776Z,24.65
2022-11-10T00:25:44.219Z,24.42
2022-11-10T00:28:33.109Z,24.85
2022-11-10T00:31:20.195Z,25.42
2022-11-10T00:34:08.259Z,27.75
2022-11-10T00:36:57.081Z,26.45
2022-11-10T00:39:44.539Z,27.38
2022-11-10T00:42:32.058Z,26.42
2022-11-10T00:45:19.413Z,26.38
2022-11-10T00:48:06.884Z,26.17
2022-11-10T00:50:54.102Z,27.80
2022-11-10T00:53:42.541Z,25.73
2022-11-10T00:56:29.658Z,27.00
2022-11-10T00:59:16.713Z,26.90
2022-11-10T01:02:04.172Z,26.63
2022-11-10T01:04:51.194Z,27.52
2022-11-10T01:07:38.366Z,27.58
2022-11-10T01:10:27.694Z,26.75
2022-11-10T01:13:15.090Z,27.63
2022-11-10T01:16:06.214Z,28.55
2022-11-10T01:18:54.817Z,28.48
2022-11-10T01:21:41.931Z,27.57
2022-11-10T01:24:29.056Z,28.13
2022-11-10T01:27:17.758Z,28.23
2022-11-10T01:30:05.969Z,29.20
2022-11-10T01:32:52.965Z,28.38
2022-11-10T01:35:40.907Z,30.42
2022-11-10T01:38:29.622Z,28.13
2022-11-10T01:41:17.033Z,28.83
2022-11-10T01:44:20.082Z,29.52
2022-11-10T01:47:07.710Z,27.80
2022-11-10T01:49:55.274Z,29.52
2022-11-10T01:52:45.372Z,29.75
2022-11-10T01:55:33.493Z,29.10
2022-11-10T01:58:26.665Z,28.90
2022-11-10T02:01:15.946Z,26.40
2022-11-10T02:04:06.433Z,27.80
2022-11-10T02:06:54.717Z,29.35
2022-11-10T02:09:42.016Z,26.38
2022-11-10T02:12:38.086Z,28.30
2022-11-10T02:15:25.253Z,29.20
2022-11-10T02:18:26.209Z,28.45
2022-11-10T02:21:18.267Z,29.92
2022-11-10T02:24:05.932Z,30.08
2022-11-10T02:26:55.871Z,29.50
2022-11-10T02:29:43.248Z,29.80
2022-11-10T02:32:30.127Z,27.90
2022-11-10T02:35:17.383Z,29.70
2022-11-10T02:38:05.698Z,29.95
2022-11-10T02:40:53.250Z,29.43
2022-11-10T02:43:40.558Z,28.67
2022-11-10T02:46:27.702Z,29.60
2022-11-10T02:49:14.580Z,27.30
2022-11-10T02:52:01.949Z,27.42
2022-11-10T02:54:50.438Z,27.63
2022-11-10T02:57:37.515Z,27.58
2022-11-10T03:00:24.895Z,27.83
2022-11-10T03:03:11.968Z,25.70
2022-11-10T03:05:59.267Z,27.33
2022-11-10T03:08:46.365Z,28.67
2022-11-10T03:11:35.374Z,28.75
2022-11-10T03:14:22.548Z,28.27
2022-11-10T03:17:09.941Z,27.02
2022-11-10T03:19:57.053Z,28.90
2022-11-10T03:22:44.493Z,28.30
2022-11-10T03:25:32.294Z,28.50
2022-11-10T03:28:20.992Z,28.60
2022-11-10T03:31:08.169Z,28.60
2022-11-10T03:33:55.254Z,28.48
2022-11-10T03:36:42.203Z,30.10
2022-11-10T03:39:29.400Z,29.08
2022-11-10T03:42:16.636Z,29.35
2022-11-10T03:45:05.702Z,27.13
2022-11-10T03:47:52.958Z,31.95
2022-11-10T03:50:40.201Z,31.88
2022-11-10T03:53:27.433Z,31.05
2022-11-10T03:56:15.059Z,29.65
2022-11-10T03:59:02.152Z,29.80
2022-11-10T04:01:50.535Z,30.77
2022-11-10T04:04:55.686Z,30.25
2022-11-10T04:08:00.657Z,31.60
2022-11-10T04:10:48.137Z,32.08
2022-11-10T04:13:53.144Z,31.00
2022-11-10T04:16:40.484Z,30.08
2022-11-10T04:19:29.355Z,32.35
2022-11-10T04:22:36.545Z,32.05
2022-11-10T04:25:23.720Z,33.72
2022-11-10T04:28:11.006Z,34.20
2022-11-10T04:30:58.072Z,35.33
2022-11-10T04:33:45.868Z,34.00
2022-11-10T04:36:36.324Z,32.72
2022-11-10T04:39:23.703Z,32.25
2022-11-10T04:42:11.054Z,30.05
2022-11-10T04:44:58.197Z,30.02
2022-11-10T04:47:45.518Z,30.13
2022-11-10T04:50:32.971Z,31.63
2022-11-10T04:53:22.570Z,29.75
2022-11-10T04:56:12.745Z,30.00
2022-11-10T04:58:59.983Z,27.88
2022-11-10T05:01:46.734Z,29.15
2022-11-10T05:04:34.072Z,29.60
2022-11-10T05:07:21.094Z,29.13
2022-11-10T05:10:10.511Z,29.38
2022-11-10T05:15:45.240Z,29.50
2022-11-10T05:18:32.387Z,28.30
2022-11-10T05:21:19.613Z,30.38
2022-11-10T05:24:07.106Z,30.42
2022-11-10T05:26:55.923Z,28.73
2022-11-10T05:29:43.158Z,31.08
2022-11-10T05:32:30.450Z,30.13
2022-11-10T05:35:17.879Z,29.33
2022-11-10T05:38:05.459Z,29.75
2022-11-10T05:40:52.627Z,29.35
2022-11-10T05:43:41.135Z,29.33
2022-11-10T05:46:28.191Z,27.00
2022-11-10T05:49:15.199Z,28.90
2022-11-10T05:52:02.391Z,30.48
2022-11-10T05:54:49.829Z,29.85
2022-11-10T05:57:37.125Z,31.50
2022-11-10T06:00:27.133Z,29.48
2022-11-10T06:03:16.335Z,30.75
2022-11-10T06:06:03.770Z,32.92
2022-11-10T06:08:51.121Z,30.08
2022-11-10T06:11:38.331Z,32.88
2022-11-10T06:14:25.400Z,31.90
2022-11-10T06:17:14.245Z,30.30
2022-11-10T06:20:01.739Z,32.75
2022-11-10T06:23:01.118Z,33.08
2022-11-10T06:25:48.308Z,32.13
2022-11-10T06:28:35.377Z,32.95
2022-11-10T06:31:22.644Z,31.20
2022-11-10T06:34:10.886Z,32.13
2022-11-10T06:36:57.833Z,31.00
2022-11-10T06:39:44.817Z,31.25
2022-11-10T06:42:31.976Z,31.77
2022-11-10T06:45:18.920Z,30.23
2022-11-10T06:48:08.965Z,30.17
2022-11-10T06:50:57.388Z,29.90
2022-11-10T06:53:44.657Z,30.52
2022-11-10T06:56:31.769Z,29.52
2022-11-10T06:59:18.898Z,28.02
2022-11-10T07:02:06.200Z,27.73
2022-11-10T07:04:53.311Z,25.98
2022-11-10T07:07:44.142Z,35.85
2022-11-10T07:10:33.537Z,29.08
2022-11-10T07:13:21.324Z,28.92
2022-11-10T07:16:09.380Z,26.30
2022-11-10T07:18:57.096Z,23.48
2022-11-10T07:21:44.492Z,23.85
2022-11-10T07:24:33.431Z,25.60
2022-11-10T07:27:20.793Z,25.13
2022-11-10T07:30:09.086Z,26.38
2022-11-10T07:33:01.965Z,23.55
2022-11-10T07:35:55.369Z,22.13
2022-11-10T07:38:42.983Z,23.92
2022-11-10T07:41:31.720Z,22.42
2022-11-10T07:44:18.876Z,21.57
2022-11-10T07:47:06.389Z,23.10
2022-11-10T07:49:53.973Z,22.30
2022-11-10T07:52:41.153Z,21.60
2022-11-10T07:55:28.285Z,22.67
2022-11-10T07:58:17.827Z,19.75
2022-11-10T08:01:05.468Z,21.13
2022-11-10T08:03:52.760Z,21.88
2022-11-10T08:06:40.082Z,25.50
2022-11-10T08:09:27.615Z,25.10
2022-11-10T08:12:14.559Z,20.23
2022-11-10T08:15:03.119Z,19.50
2022-11-10T08:17:50.272Z,18.40
2022-11-10T08:20:37.421Z,17.48
2022-11-10T08:23:24.778Z,19.45
2022-11-10T08:26:12.382Z,19.40
2022-11-10T08:28:59.665Z,18.60
2022-11-10T08:31:48.553Z,19.20
2022-11-10T08:34:35.935Z,19.23
2022-11-10T08:37:23.139Z,20.63
2022-11-10T08:40:11.648Z,18.40
2022-11-10T08:43:02.239Z,18.83
2022-11-10T08:45:49.273Z,19.83
2022-11-10T08:48:37.757Z,23.92
2022-11-10T08:51:24.786Z,20.25
2022-11-10T08:54:12.044Z,19.95
2022-11-10T08:56:59.209Z,23.85
2022-11-10T08:59:46.293Z,23.92
2022-11-10T09:02:33.457Z,20.40
2022-11-10T09:05:22.117Z,24.85
2022-11-10T09:08:10.053Z,19.38
2022-11-10T09:10:57.097Z,19.40
2022-11-10T09:13:44.196Z,19.15
2022-11-10T09:16:31.456Z,20.30
2022-11-10T09:19:20.152Z,46.85
2022-11-10T09:22:09.814Z,20.35
2022-11-10T09:24:57.259Z,18.88
2022-11-10T09:27:44.539Z,22.40
2022-11-10T09:30:32.373Z,19.20
2022-11-10T09:33:20.574Z,19.27
2022-11-10T09:36:08.706Z,18.50
2022-11-10T09:38:57.393Z,19.38
2022-11-10T09:41:46.274Z,19.00
2022-11-10T09:44:37.569Z,18.45
2022-11-10T09:47:55.622Z,19.48
2022-11-10T09:50:41.197Z,18.50
2022-11-10T09:53:33.661Z,18.70
2022-11-10T09:56:31.566Z,17.48
2022-11-10T09:59:26.084Z,19.08
2022-11-10T10:02:23.704Z,16.55
2022-11-10T10:05:42.052Z,18.27
2022-11-10T10:08:37.807Z,17.83
2022-11-10T10:11:49.957Z,22.55
2022-11-10T10:14:57.736Z,16.73
2022-11-10T10:17:53.164Z,16.40
2022-11-10T10:20:49.339Z,17.13
2022-11-10T10:24:08.050Z,17.17
2022-11-10T10:26:54.017Z,17.10
2022-11-10T10:29:44.776Z,15.95
2022-11-10T10:32:32.029Z,15.48
2022-11-10T10:35:20.037Z,14.88
2022-11-10T10:38:17.267Z,14.02
2022-11-10T10:41:13.471Z,15.70
2022-11-10T10:44:04.159Z,16.70
2022-11-10T10:46:53.397Z,20.33
2022-11-10T10:49:40.465Z,14.85
2022-11-10T10:52:27.702Z,15.80
2022-11-10T10:55:15.319Z,15.70
2022-11-10T10:58:04.897Z,19.48
2022-11-10T11:00:56.034Z,16.00
2022-11-10T11:03:44.921Z,17.27
2022-11-10T11:06:33.663Z,16.02
2022-11-10T11:09:24.846Z,15.30
2022-11-10T11:12:13.789Z,17.67
2022-11-10T11:15:20.286Z,17.65
2022-11-10T11:18:15.137Z,22.75
2022-11-10T11:21:06.847Z,15.95
2022-11-10T11:24:21.773Z,14.77
2022-11-10T11:27:17.470Z,18.23
2022-11-10T11:30:12.316Z,15.00
2022-11-10T11:33:22.018Z,15.40
2022-11-10T11:36:24.800Z,13.45
2022-11-10T11:39:26.732Z,13.63
2022-11-10T11:42:28.685Z,13.60
2022-11-10T11:45:21.672Z,14.75
2022-11-10T11:48:42.645Z,12.95
2022-11-10T11:51:36.691Z,14.25
2022-11-10T11:54:29.915Z,12.73
2022-11-10T11:57:24.063Z,12.85
2022-11-10T12:00:14.574Z,13.52
2022-11-10T12:03:38.187Z,11.77
2022-11-10T12:06:49.150Z,12.25
2022-11-10T12:09:45.048Z,13.50
2022-11-10T12:12:54.594Z,11.93
2022-11-10T12:15:51.910Z,11.77
2022-11-10T12:18:49.669Z,14.25
2022-11-10T12:21:45.387Z,15.90
2022-11-10T12:24:52.549Z,11.32
2022-11-10T12:27:44.040Z,12.55
2022-11-10T12:30:32.335Z,13.30
2022-11-10T12:33:30.866Z,13.60
2022-11-10T12:36:22.217Z,16.48
2022-11-10T12:39:18.389Z,15.52
2022-11-10T12:42:09.479Z,13.18
2022-11-10T12:45:00.857Z,13.05
2022-11-10T12:47:49.706Z,13.68
2022-11-10T12:50:45.948Z,13.38
2022-11-10T12:53:37.831Z,12.10
2022-11-10T12:56:29.999Z,12.93
2022-11-10T12:59:31.162Z,14.20
2022-11-10T13:02:28.145Z,13.82
2022-11-10T13:05:33.920Z,18.15
2022-11-10T13:08:27.561Z,14.30
2022-11-10T13:11:27.484Z,15.85
2022-11-10T13:14:24.966Z,13.88
2022-11-10T13:17:13.210Z,14.52
2022-11-10T13:20:20.768Z,14.07
2022-11-10T13:23:22.706Z,12.17
2022-11-10T13:26:12.263Z,12.55
2022-11-10T13:29:02.689Z,14.07
2022-11-10T13:31:54.722Z,12.88
2022-11-10T13:34:42.504Z,12.40
2022-11-10T13:37:47.037Z,14.13
2022-11-10T13:40:36.940Z,12.68
2022-11-10T13:43:28.073Z,12.90
2022-11-10T13:46:17.159Z,12.43
2022-11-10T13:49:22.335Z,12.07
2022-11-10T13:52:13.422Z,11.73
2022-11-10T13:55:04.835Z,16.73
2022-11-10T13:57:59.475Z,14.18
2022-11-10T14:00:50.587Z,14.60
2022-11-10T14:03:55.644Z,14.88
2022-11-10T14:06:45.537Z,14.63
2022-11-10T14:09:35.145Z,23.02
2022-11-10T14:12:25.552Z,18.58
2022-11-10T14:15:16.918Z,15.25
2022-11-10T14:18:05.056Z,23.52
2022-11-10T14:20:57.468Z,15.23
2022-11-10T14:23:47.542Z,13.85
2022-11-10T14:26:38.050Z,12.68
2022-11-10T14:29:32.717Z,14.32
2022-11-10T14:32:22.291Z,12.88
2022-11-10T14:38:01.401Z,14.30
2022-11-10T14:40:48.937Z,14.50
2022-11-10T14:43:37.455Z,15.40
2022-11-10T14:46:25.601Z,15.27
2022-11-10T14:49:13.014Z,13.50
2022-11-10T14:52:01.755Z,14.68
2022-11-10T14:54:50.733Z,15.25
2022-11-10T14:57:37.955Z,15.50
2022-11-10T15:00:26.661Z,15.73
2022-11-10T15:03:16.917Z,14.70
2022-11-10T15:06:04.938Z,14.77
2022-11-10T15:08:52.269Z,14.55
2022-11-10T15:11:41.908Z,13.68
2022-11-10T15:14:39.710Z,15.77
2022-11-10T15:17:41.809Z,16.45
2022-11-10T15:20:37.792Z,15.38
2022-11-10T15:23:33.666Z,16.00
2022-11-10T15:26:23.099Z,16.92
2022-11-10T15:32:15.950Z,20.73
2022-11-10T15:35:27.040Z,17.88
2022-11-10T15:38:33.373Z,19.23
2022-11-10T15:41:27.715Z,18.42
2022-11-10T15:44:21.735Z,19.58
2022-11-10T15:47:13.905Z,16.63
2022-11-10T15:50:02.915Z,16.33
2022-11-10T15:52:49.774Z,16.83
2022-11-10T15:55:37.135Z,17.23
2022-11-10T15:58:25.292Z,16.55
2022-11-10T16:01:15.109Z,17.67
2022-11-10T16:04:02.391Z,16.50
2022-11-10T16:06:49.837Z,17.38
2022-11-10T16:09:37.043Z,16.65
2022-11-10T16:12:24.864Z,15.57
2022-11-10T16:15:21.977Z,16.42
2022-11-10T16:18:16.430Z,16.25
2022-11-10T16:21:03.765Z,15.75
2022-11-10T16:23:51.400Z,15.02
2022-11-10T16:26:38.703Z,15.82
2022-11-10T16:29:25.607Z,15.75
2022-11-10T16:32:13.123Z,16.85
2022-11-10T16:35:01.520Z,12.98
2022-11-10T16:37:49.303Z,12.77
2022-11-10T16:40:36.463Z,12.45
2022-11-10T16:43:24.006Z,10.93
2022-11-10T16:46:19.832Z,10.00
2022-11-10T16:49:19.001Z,9.88
2022-11-10T16:54:59.261Z,9.32
2022-11-10T16:57:46.647Z,9.82
2022-11-10T17:00:34.280Z,9.02
2022-11-10T17:03:29.312Z,9.50
2022-11-10T17:06:17.751Z,9.40
2022-11-10T17:09:14.518Z,9.63
2022-11-10T17:12:01.682Z,8.45
2022-11-10T17:14:48.732Z,8.95
2022-11-10T17:17:37.698Z,9.20
2022-11-10T17:20:29.869Z,8.90
2022-11-10T17:23:21.416Z,9.35
2022-11-10T17:26:13.458Z,9.27
2022-11-10T17:29:00.845Z,9.10
2022-11-10T17:31:50.477Z,9.20
2022-11-10T17:34:37.806Z,11.00
2022-11-10T17:37:25.149Z,10.02
2022-11-10T17:40:22.277Z,10.10
2022-11-10T17:43:13.200Z,9.63
2022-11-10T17:46:00.594Z,10.15
2022-11-10T17:48:48.221Z,8.77
2022-11-10T17:51:36.222Z,10.05
2022-11-10T17:54:23.666Z,9.68
2022-11-10T17:57:11.925Z,8.48
2022-11-10T18:00:00.757Z,8.75
2022-11-10T18:02:54.156Z,9.75
2022-11-10T18:05:42.500Z,9.25
2022-11-10T18:08:29.585Z,7.72
2022-11-10T18:11:19.170Z,8.23
2022-11-10T18:16:54.785Z,8.25
2022-11-10T18:19:42.236Z,9.00
2022-11-10T18:22:29.560Z,7.22
2022-11-10T18:25:17.024Z,7.35
2022-11-10T18:28:04.111Z,7.55
2022-11-10T18:30:51.410Z,7.82
2022-11-10T18:33:40.192Z,8.07
2022-11-10T18:36:27.668Z,8.02
2022-11-10T18:39:14.822Z,11.27
2022-11-10T18:42:02.064Z,10.85
2022-11-10T18:44:51.538Z,6.60
2022-11-10T18:47:39.109Z,11.23
2022-11-10T18:50:27.682Z,6.20
2022-11-10T18:53:15.046Z,5.43
2022-11-10T18:56:02.461Z,5.55
2022-11-10T18:58:56.409Z,5.20
2022-11-10T19:01:44.395Z,5.47
2022-11-10T19:04:31.739Z,5.18
2022-11-10T19:07:20.741Z,47.47
2022-11-10T19:10:08.482Z,6.75
2022-11-10T19:12:55.392Z,4.30
2022-11-10T19:15:43.081Z,3.83
2022-11-10T19:18:30.762Z,3.60
2022-11-10T19:21:20.109Z,3.60
2022-11-10T19:24:09.648Z,3.63
2022-11-10T19:29:43.979Z,3.03
2022-11-10T19:32:31.565Z,2.97
2022-11-10T19:35:19.240Z,3.28
2022-11-10T19:38:06.486Z,3.05
2022-11-10T19:40:55.270Z,3.47
2022-11-10T19:43:47.307Z,3.05
2022-11-10T19:46:37.106Z,2.92
2022-11-10T19:52:11.659Z,2.85
2022-11-10T19:54:58.749Z,3.05
2022-11-10T19:57:47.671Z,3.13
2022-11-10T20:00:35.071Z,4.00
2022-11-10T20:03:22.691Z,3.05
2022-11-10T20:06:12.039Z,3.53
2022-11-10T20:08:59.208Z,4.15
2022-11-10T20:11:47.096Z,3.08
2022-11-10T20:14:36.023Z,3.05
2022-11-10T20:17:23.096Z,3.43
2022-11-10T20:20:11.168Z,3.17
2022-11-10T20:23:03.024Z,3.35
2022-11-10T20:25:50.010Z,3.20
2022-11-10T20:28:39.492Z,3.40
2022-11-10T20:31:28.221Z,3.00
2022-11-10T20:34:15.655Z,3.63
2022-11-10T20:37:02.904Z,3.90
2022-11-10T20:39:49.983Z,3.45
2022-11-10T20:42:42.405Z,3.45
2022-11-10T20:45:29.731Z,3.50
2022-11-10T20:48:18.210Z,5.38
2022-11-10T20:51:11.490Z,3.80
2022-11-10T20:54:02.824Z,4.55
2022-11-10T20:56:50.064Z,3.92
2022-11-10T20:59:37.876Z,4.13
2022-11-10T21:02:26.904Z,3.85
2022-11-10T21:05:15.632Z,4.65
2022-11-10T21:08:03.058Z,4.03
2022-11-10T21:10:55.258Z,4.20
2022-11-10T21:13:44.859Z,3.30
2022-11-10T21:16:32.091Z,3.05
2022-11-10T21:19:19.298Z,3.70
2022-11-10T21:22:08.272Z,3.47
2022-11-10T21:24:55.564Z,4.30
2022-11-10T21:27:42.814Z,4.20
2022-11-10T21:30:30.127Z,4.43
2022-11-10T21:33:17.459Z,4.18
2022-11-10T21:36:07.822Z,3.58
2022-11-10T21:38:56.556Z,3.70
2022-11-10T21:41:43.691Z,3.65
2022-11-10T21:44:30.942Z,4.35
2022-11-10T21:47:18.566Z,4.20
2022-11-10T21:50:06.063Z,3.63
2022-11-10T21:52:53.356Z,3.92
2022-11-10T21:55:42.109Z,3.60
2022-11-10T21:58:29.579Z,3.28
2022-11-10T22:01:19.200Z,4.05
2022-11-10T22:04:06.656Z,3.22
2022-11-10T22:07:11.625Z,3.42
2022-11-10T22:10:16.506Z,3.95
2022-11-10T22:13:23.350Z,4.15
2022-11-10T22:16:39.022Z,3.88
2022-11-10T22:19:26.586Z,4.07
2022-11-10T22:22:14.481Z,4.03
2022-11-10T22:25:02.009Z,4.45
2022-11-10T22:27:57.091Z,4.13
2022-11-10T22:30:46.056Z,3.75
2022-11-10T22:33:35.320Z,3.55
2022-11-10T22:39:10.647Z,3.72
2022-11-10T22:42:15.890Z,3.65
2022-11-10T22:45:03.717Z,3.30
2022-11-10T22:48:15.343Z,3.42
2022-11-10T22:51:03.146Z,3.30
2022-11-10T22:53:50.754Z,3.00
2022-11-10T22:56:38.962Z,3.05
2022-11-10T22:59:26.652Z,3.13
2022-11-10T23:02:14.039Z,3.30
2022-11-10T23:05:03.013Z,3.25
2022-11-10T23:07:50.850Z,3.25
2022-11-10T23:10:38.790Z,3.65
2022-11-10T23:13:26.186Z,2.75
2022-11-10T23:16:14.157Z,3.10
2022-11-10T23:19:04.361Z,3.95
2022-11-10T23:21:55.473Z,3.90
2022-11-10T23:24:42.794Z,2.83
2022-11-10T23:27:30.128Z,2.85
2022-11-10T23:30:19.608Z,3.10
2022-11-10T23:33:08.688Z,3.20
2022-11-10T23:35:59.527Z,3.08
2022-11-10T23:38:50.483Z,2.65
2022-11-10T23:41:40.121Z,2.97
2022-11-10T23:47:18.809Z,2.92
2022-11-10T23:50:08.582Z,2.55
2022-11-10T23:52:58.333Z,2.72
2022-11-10T23:58:36.810Z,2.45
